Commodore Clipper — C6QQ3 — position and weather

sailwx.info

Track history (hours):
 
Tides and Currents Weather Stations Pressure Air Temp Water Temp Dewpoint Dewpoint Depression Visibility Wind Speed Wind Dir Waves Ship Positions

Commodore Clipper

Operator: Condor Marine Services

Last reported at 2018-Sep-24 18:04 UTC. Time now 2018-Sep-24 21:06 UTC.
Position N 49°11' W 002°07'.

Length 130 m; draft 5.4 m.

Type: Ship. MMSI: 308094000.

Date/timePositionNaut miles runAvg speedWind from/ knotsBaromVisibWave heightAir tempDewpointWater temp
2018-Sep-24 18:04N 49°11' W 002°07'0 1.4
2018-Sep-24 18:01N 49°11' W 002°07'713.3
2018-Sep-24 17:30N 49°10' W 002°17'715.8
2018-Sep-24 17:03N 49°16' W 002°23'317.7
2018-Sep-24 16:51N 49°19' W 002°26'616.5
2018-Sep-24 16:30N 49°25' W 002°28'3 7.8
2018-Sep-24 16:04N 49°27' W 002°32'0 0.0
2018-Sep-24 16:00N 49°27' W 002°32'0 0.0
2018-Sep-24 15:31N 49°27' W 002°32'0 0.0
2018-Sep-24 15:04N 49°27' W 002°32'0 0.1
2018-Sep-24 15:01N 49°27' W 002°32'8 8.8
2018-Sep-24 14:03N 49°29' W 002°19'114.5
2018-Sep-24 14:00N 49°30' W 002°18'816.8
2018-Sep-24 13:31N 49°35' W 002°08'1221.2
2018-Sep-24 12:56N 49°46' W 002°01'919.7
2018-Sep-24 12:31N 49°53' W 001°53'919.2
2018-Sep-24 12:03N 50°00' W 001°45'118.9
2018-Sep-24 12:00N 50°01' W 001°44'917.9
2018-Sep-24 11:30N 50°09' W 001°39'1917.0
2018-Sep-24 10:22N 50°24' W 001°20'516.8
2018-Sep-24 10:03N 50°28' W 001°15'116.7
2018-Sep-24 10:01N 50°29' W 001°14'816.3
2018-Sep-24 09:31N 50°36' W 001°08'715.4
2018-Sep-24 09:04N 50°42' W 001°03'116.4
2018-Sep-24 09:01N 50°43' W 001°03'612.0
2018-Sep-24 08:31N 50°48' W 001°07'1 1.7
2018-Sep-24 08:03N 50°49' W 001°06'0 0.1
2018-Sep-24 08:01N 50°49' W 001°06'0 0.0
2018-Sep-24 07:31N 50°49' W 001°06'0 0.0
2018-Sep-24 07:04N 50°49' W 001°06'0 0.1
2018-Sep-24 07:01N 50°49' W 001°06'0 0.0
2018-Sep-24 06:31N 50°49' W 001°06'0 0.0
2018-Sep-24 06:03N 50°49' W 001°06'0 0.1
2018-Sep-24 06:00N 50°49' W 001°06'0 0.0
2018-Sep-24 05:30N 50°49' W 001°06'0 0.0
2018-Sep-24 05:04N 50°49' W 001°06'0 0.0
2018-Sep-24 05:01N 50°49' W 001°06'0 0.0
2018-Sep-24 04:31N 50°49' W 001°06'0 0.0
2018-Sep-24 04:03N 50°49' W 001°06'0 0.3
2018-Sep-24 04:01N 50°49' W 001°06'0 0.0
2018-Sep-24 03:31N 50°49' W 001°06'0 0.0
2018-Sep-24 03:04N 50°49' W 001°06'0 0.0
2018-Sep-24 03:00N 50°49' W 001°06'0 0.0
2018-Sep-24 02:31N 50°49' W 001°06'0 0.0
2018-Sep-24 02:04N 50°49' W 001°06'0 0.0
2018-Sep-24 02:01N 50°49' W 001°06'0 0.0
2018-Sep-24 01:31N 50°49' W 001°06'0 0.0
2018-Sep-24 01:04N 50°49' W 001°06'0 0.0
2018-Sep-24 01:01N 50°49' W 001°06'0 0.0
2018-Sep-24 00:31N 50°49' W 001°06'0 0.0
2018-Sep-24 00:04N 50°49' W 001°06'0 0.0
2018-Sep-24 00:01N 50°49' W 001°06'0 0.0
2018-Sep-23 23:31N 50°49' W 001°06'0 0.0
2018-Sep-23 23:04N 50°49' W 001°06'0 0.1
2018-Sep-23 23:01N 50°49' W 001°06'0 0.0
2018-Sep-23 22:31N 50°49' W 001°06'0 0.0
2018-Sep-23 22:04N 50°49' W 001°06'0 0.0
2018-Sep-23 22:01N 50°49' W 001°06'0 0.0
2018-Sep-23 21:31N 50°49' W 001°06'0 0.0
2018-Sep-23 21:03N 50°49' W 001°06'0 0.0
2018-Sep-23 21:00N 50°49' W 001°06'0 0.0
2018-Sep-23 20:31N 50°49' W 001°06'0 0.0
2018-Sep-23 20:04N 50°49' W 001°06'0 0.1
2018-Sep-23 20:01N 50°49' W 001°06'0 0.0
2018-Sep-23 19:31N 50°49' W 001°06'0 0.0
2018-Sep-23 19:04N 50°49' W 001°06'0 0.0
2018-Sep-23 19:01N 50°49' W 001°06'0 0.0
2018-Sep-23 18:30N 50°49' W 001°06'0 0.0
2018-Sep-23 18:04N 50°49' W 001°06'0 0.0
2018-Sep-23 18:01N 50°49' W 001°06'0 0.0
2018-Sep-23 17:31N 50°49' W 001°06'0 0.0
2018-Sep-23 17:03N 50°49' W 001°06'0 0.0
2018-Sep-23 17:01N 50°49' W 001°06'0 0.0
2018-Sep-23 16:31N 50°49' W 001°06'0 0.0
2018-Sep-23 16:04N 50°49' W 001°06'0 0.0
2018-Sep-23 16:01N 50°49' W 001°06'0 0.0
2018-Sep-23 15:31N 50°49' W 001°06'0 0.0
2018-Sep-23 15:04N 50°49' W 001°06'0 0.1
2018-Sep-23 15:01N 50°49' W 001°06'0 0.0
2018-Sep-23 14:01N 50°49' W 001°06'0 0.0
2018-Sep-23 13:31N 50°49' W 001°06'0 0.0
2018-Sep-23 13:04N 50°49' W 001°06'0 0.0
2018-Sep-23 13:01N 50°49' W 001°06'0 0.0
2018-Sep-23 12:31N 50°49' W 001°06'0 0.0
2018-Sep-23 12:04N 50°49' W 001°06'0 0.0
2018-Sep-23 12:01N 50°49' W 001°06'0 0.0
2018-Sep-23 11:31N 50°49' W 001°06'0 0.0
2018-Sep-23 11:04N 50°49' W 001°06'0 0.0
2018-Sep-23 11:01N 50°49' W 001°06'0 0.0
2018-Sep-23 10:31N 50°49' W 001°06'0 0.0
2018-Sep-23 10:03N 50°49' W 001°06'0 0.0
2018-Sep-23 10:01N 50°49' W 001°06'0 0.0
2018-Sep-23 09:31N 50°49' W 001°06'0 0.0
2018-Sep-23 09:04N 50°49' W 001°06'0 0.0
2018-Sep-23 09:01N 50°49' W 001°06'0 0.0
2018-Sep-23 08:31N 50°49' W 001°06'0 0.0
2018-Sep-23 08:04N 50°49' W 001°06'0 0.0
2018-Sep-23 08:01N 50°49' W 001°06'0 0.0
2018-Sep-23 07:31N 50°49' W 001°06'0 0.0
2018-Sep-23 07:03N 50°49' W 001°06'0 0.1
2018-Sep-23 07:01N 50°49' W 001°06'0 0.0
2018-Sep-23 06:31N 50°49' W 001°06'0 0.0
2018-Sep-23 06:03N 50°49' W 001°06'0 0.0
2018-Sep-23 06:00N 50°49' W 001°06'0 0.0
2018-Sep-23 05:30N 50°49' W 001°06'1 2.8
2018-Sep-23 05:04N 50°48' W 001°07'110.4
2018-Sep-23 05:00N 50°47' W 001°06'713.5
2018-Sep-23 04:30N 50°42' W 001°00'714.5
2018-Sep-23 04:03N 50°36' W 001°05'114.5
2018-Sep-23 04:01N 50°35' W 001°06'814.9
2018-Sep-23 03:30N 50°29' W 001°12'815.5
2018-Sep-23 02:59N 50°22' W 001°19'3313.7
2018-Sep-23 00:33N 49°56' W 001°51'614.6
2018-Sep-23 00:10N 49°51' W 001°56'314.1
2018-Sep-22 23:57N 49°49' W 001°59'712.8
2018-Sep-22 23:25N 49°43' W 002°04'412.6
2018-Sep-22 23:04N 49°39' W 002°07'114.5
2018-Sep-22 23:00N 49°38' W 002°08'714.7
2018-Sep-22 22:30N 49°32' W 002°14'716.2
2018-Sep-22 22:04N 49°28' W 002°23'115.4
2018-Sep-22 22:01N 49°27' W 002°24'510.1
2018-Sep-22 21:30N 49°27' W 002°32'0 0.0
2018-Sep-22 21:03N 49°27' W 002°32'0 0.1
2018-Sep-22 21:00N 49°27' W 002°32'0 0.0
2018-Sep-22 20:30N 49°27' W 002°32'0 0.0
2018-Sep-22 20:03N 49°27' W 002°32'0 0.0
2018-Sep-22 20:00N 49°27' W 002°32'2 3.7
2018-Sep-22 19:31N 49°26' W 002°29'612.4
2018-Sep-22 19:03N 49°28' W 002°21'115.8
2018-Sep-22 19:01N 49°29' W 002°21'914.1
2018-Sep-22 18:22N 49°34' W 002°10'612.6
2018-Sep-22 17:55N 49°39' W 002°06'1411.2
2018-Sep-22 16:43N 49°51' W 001°55'314.0
2018-Sep-22 16:31N 49°53' W 001°53'915.4
2018-Sep-22 15:54N 50°00' W 001°43'2816.4
2018-Sep-22 14:13N 50°24' W 001°22'517.4
2018-Sep-22 13:56N 50°28' W 001°17'818.3
2018-Sep-22 13:31N 50°35' W 001°10'818.2
2018-Sep-22 13:04N 50°41' W 001°03'117.6
2018-Sep-22 13:01N 50°42' W 001°03'713.5
2018-Sep-22 12:31N 50°48' W 001°07'1 1.9
2018-Sep-22 12:02N 50°49' W 001°06'0 0.0
2018-Sep-22 11:59N 50°49' W 001°06'0 0.0
2018-Sep-22 11:29N 50°49' W 001°06'0 0.0
2018-Sep-22 11:02N 50°49' W 001°06'0 0.1
2018-Sep-22 10:59N 50°49' W 001°06'0 0.0
2018-Sep-22 10:29N 50°49' W 001°06'0 0.1
2018-Sep-22 10:03N 50°49' W 001°06'0 1.9
2018-Sep-22 09:58N 50°49' W 001°06'3 7.4
2018-Sep-22 09:30N 50°45' W 001°05'510.9
2018-Sep-22 09:03N 50°40' W 001°03'111.8
2018-Sep-22 09:01N 50°40' W 001°04'816.0
2018-Sep-22 08:30N 50°33' W 001°10'6817.9
2018-Sep-22 04:43N 49°36' W 002°08'519.1
2018-Sep-22 04:26N 49°31' W 002°11'718.3
2018-Sep-22 04:03N 49°24' W 002°15'218.2
2018-Sep-22 03:58N 49°23' W 002°16'13 3.0
2018-Sep-21 23:42N 49°11' W 002°18'614.6
2018-Sep-21 23:16N 49°13' W 002°27'313.5
2018-Sep-21 23:02N 49°15' W 002°31'213.7
2018-Sep-21 22:55N 49°17' W 002°31'716.5
2018-Sep-21 22:30N 49°23' W 002°28'5 8.2
2018-Sep-21 21:55N 49°27' W 002°32'0 0.0
2018-Sep-21 21:31N 49°27' W 002°32'0 0.0
2018-Sep-21 21:01N 49°27' W 002°32'1 1.2
2018-Sep-21 20:30N 49°27' W 002°31'510.9
2018-Sep-21 20:03N 49°28' W 002°23'117.3
2018-Sep-21 20:00N 49°28' W 002°22'816.1
2018-Sep-21 19:29N 49°33' W 002°12'6611.8
2018-Sep-21 13:55N 50°27' W 001°14'512.4
2018-Sep-21 13:30N 50°32' W 001°11'715.3
2018-Sep-21 13:03N 50°38' W 001°06'116.0
2018-Sep-21 13:00N 50°39' W 001°05'713.0
2018-Sep-21 12:30N 50°45' W 001°05'4 7.9
2018-Sep-21 12:04N 50°49' W 001°06'0 5.5
2018-Sep-21 12:01N 50°49' W 001°06'0 0.3
2018-Sep-21 11:28N 50°49' W 001°06'0 0.0
2018-Sep-21 11:01N 50°49' W 001°06'0 0.0
2018-Sep-21 10:58N 50°49' W 001°06'0 0.0
2018-Sep-21 10:25N 50°49' W 001°06'0 0.0
2018-Sep-21 10:01N 50°49' W 001°06'0 0.1
2018-Sep-21 09:58N 50°49' W 001°06'0 0.0
2018-Sep-21 09:28N 50°49' W 001°06'0 0.3
2018-Sep-21 09:03N 50°49' W 001°06'0 1.6
2018-Sep-21 09:00N 50°49' W 001°06'5 9.0
2018-Sep-21 08:30N 50°44' W 001°04'4 8.7
2018-Sep-21 08:03N 50°40' W 001°03'116.7
2018-Sep-21 08:00N 50°40' W 001°04'7017.1
2018-Sep-21 03:53N 49°41' W 002°06'714.9
2018-Sep-21 03:24N 49°34' W 002°04'816.9
2018-Sep-21 02:56N 49°27' W 002°10'716.1
2018-Sep-21 02:31N 49°22' W 002°16'714.9
2018-Sep-21 02:02N 49°16' W 002°23'2 0.3
2018-Sep-20 20:57N 49°15' W 002°21'715.5
2018-Sep-20 20:30N 49°21' W 002°26'715.5
2018-Sep-20 20:03N 49°27' W 002°31'0 4.8
2018-Sep-20 19:58N 49°27' W 002°32'0 0.0
2018-Sep-20 19:29N 49°27' W 002°32'0 0.0
2018-Sep-20 18:59N 49°27' W 002°32'0 0.0
2018-Sep-20 18:29N 49°27' W 002°32'3 7.6
2018-Sep-20 18:04N 49°25' W 002°28'115.4
2018-Sep-20 18:01N 49°26' W 002°27'815.8
2018-Sep-20 17:30N 49°31' W 002°17'1713.7
2018-Sep-20 16:17N 49°45' W 002°03'313.2
2018-Sep-20 16:03N 49°46' W 001°59'112.7
2018-Sep-20 16:00N 49°46' W 001°58'713.3
2018-Sep-20 15:31N 49°49' W 001°49'614.3
2018-Sep-20 15:03N 49°53' W 001°41'115.1
2018-Sep-20 15:00N 49°54' W 001°40'1515.6
2018-Sep-20 14:03N 50°08' W 001°32'115.8
2018-Sep-20 14:01N 50°08' W 001°32'816.1
2018-Sep-20 13:30N 50°16' W 001°26'1316.1
2018-Sep-20 12:43N 50°27' W 001°17'416.0
2018-Sep-20 12:30N 50°30' W 001°14'716.4
2018-Sep-20 12:03N 50°36' W 001°08'116.8
2018-Sep-20 12:00N 50°37' W 001°07'714.9
2018-Sep-20 11:30N 50°43' W 001°02'512.1
2018-Sep-20 11:03N 50°48' W 001°07'0 7.4
2018-Sep-20 11:00N 50°48' W 001°07'1 1.4
2018-Sep-20 10:28N 50°49' W 001°06'0 0.0
2018-Sep-20 10:01N 50°49' W 001°06'0 0.1
2018-Sep-20 09:58N 50°49' W 001°06'0 0.0
2018-Sep-20 09:28N 50°49' W 001°06'0 0.0
2018-Sep-20 09:01N 50°49' W 001°06'0 0.1
2018-Sep-20 08:58N 50°49' W 001°06'0 0.0
2018-Sep-20 08:28N 50°49' W 001°06'0 0.0
2018-Sep-20 08:01N 50°49' W 001°06'0 0.0
2018-Sep-20 07:58N 50°49' W 001°06'2 4.7
2018-Sep-20 07:30N 50°47' W 001°06'613.4
2018-Sep-20 07:03N 50°41' W 001°03'117.4
2018-Sep-20 07:00N 50°40' W 001°04'916.2
2018-Sep-20 06:26N 50°33' W 001°12'1613.2
2018-Sep-20 05:15N 50°19' W 001°26'313.3
2018-Sep-20 05:03N 50°17' W 001°28'113.4
2018-Sep-20 05:00N 50°17' W 001°28'713.6
2018-Sep-20 04:30N 50°11' W 001°34'715.8
2018-Sep-20 04:04N 50°05' W 001°41'117.9
2018-Sep-20 04:01N 50°05' W 001°41'918.2
2018-Sep-20 03:30N 49°57' W 001°49'1018.7
2018-Sep-20 03:00N 49°49' W 001°57'1319.2
2018-Sep-20 02:19N 49°37' W 002°06'518.2
2018-Sep-20 02:01N 49°32' W 002°09'318.0
2018-Sep-20 01:52N 49°30' W 002°11'717.6
2018-Sep-20 01:27N 49°23' W 002°17'7 1.5
2018-Sep-19 20:58N 49°19' W 002°24'817.0
2018-Sep-19 20:30N 49°26' W 002°29'2 3.8
2018-Sep-19 19:56N 49°27' W 002°32'0 0.0
2018-Sep-19 19:26N 49°27' W 002°32'0 0.0
2018-Sep-19 19:02N 49°27' W 002°32'0 0.0
2018-Sep-19 18:56N 49°27' W 002°32'0 0.0
2018-Sep-19 18:26N 49°27' W 002°32'2 5.3
2018-Sep-19 18:04N 49°26' W 002°29'115.4
2018-Sep-19 18:01N 49°25' W 002°29'916.1
2018-Sep-19 17:28N 49°30' W 002°18'1714.7
2018-Sep-19 16:17N 49°45' W 002°02'314.0
2018-Sep-19 16:03N 49°47' W 001°59'113.4
2018-Sep-19 16:00N 49°48' W 001°59'714.2
2018-Sep-19 15:30N 49°53' W 001°52'614.3
2018-Sep-19 15:03N 49°59' W 001°47'114.1
2018-Sep-19 15:00N 49°59' W 001°46'1414.5
2018-Sep-19 14:04N 50°11' W 001°34'814.7
2018-Sep-19 13:30N 50°17' W 001°27'1014.8
2018-Sep-19 12:50N 50°26' W 001°19'515.0
2018-Sep-19 12:30N 50°30' W 001°14'715.0
2018-Sep-19 12:03N 50°36' W 001°09'115.5
2018-Sep-19 12:00N 50°36' W 001°08'714.9
2018-Sep-19 11:30N 50°43' W 001°02'613.3
2018-Sep-19 11:03N 50°48' W 001°07'0 6.1
2018-Sep-19 11:00N 50°48' W 001°07'1 2.1
2018-Sep-19 10:30N 50°49' W 001°06'0 0.0
2018-Sep-19 10:03N 50°49' W 001°06'0 0.1
2018-Sep-19 10:00N 50°49' W 001°06'0 0.0
2018-Sep-19 09:30N 50°49' W 001°06'0 0.0
2018-Sep-19 09:03N 50°49' W 001°06'0 0.0
2018-Sep-19 09:00N 50°49' W 001°06'0 0.0
2018-Sep-19 08:30N 50°49' W 001°06'0 0.0
2018-Sep-19 08:03N 50°49' W 001°06'0 0.0
2018-Sep-19 08:00N 50°49' W 001°06'0 0.0
2018-Sep-19 07:30N 50°49' W 001°06'2 4.3
2018-Sep-19 07:03N 50°47' W 001°06'0 9.4
2018-Sep-19 07:00N 50°47' W 001°06'612.8
2018-Sep-19 06:30N 50°40' W 001°04'716.5
2018-Sep-19 06:03N 50°34' W 001°10'115.2
2018-Sep-19 05:59N 50°33' W 001°11'1312.3
2018-Sep-19 04:57N 50°22' W 001°21'512.3
2018-Sep-19 04:30N 50°17' W 001°26'612.8
2018-Sep-19 04:03N 50°12' W 001°31'112.8
2018-Sep-19 04:00N 50°12' W 001°31'612.8
2018-Sep-19 03:30N 50°07' W 001°38'612.8
2018-Sep-19 03:03N 50°02' W 001°43'114.1
2018-Sep-19 03:01N 50°02' W 001°43'714.5
2018-Sep-19 02:30N 49°56' W 001°50'715.7
2018-Sep-19 02:03N 49°50' W 001°56'118.9
2018-Sep-19 02:00N 49°49' W 001°57'1218.4
2018-Sep-19 01:19N 49°38' W 002°07'517.9
2018-Sep-19 01:02N 49°34' W 002°10'118.2
2018-Sep-19 00:58N 49°33' W 002°12'917.9
2018-Sep-19 00:29N 49°28' W 002°22'512.6
2018-Sep-19 00:04N 49°27' W 002°31'111.2
2018-Sep-19 00:01N 49°27' W 002°32'0 0.2
2018-Sep-18 23:26N 49°27' W 002°32'0 0.0
2018-Sep-18 23:02N 49°27' W 002°32'0 0.0
2018-Sep-18 22:56N 49°27' W 002°32'0 0.0
2018-Sep-18 22:26N 49°27' W 002°32'0 0.1
2018-Sep-18 22:02N 49°27' W 002°32'0 0.5
2018-Sep-18 22:00N 49°27' W 002°32'611.8
2018-Sep-18 21:31N 49°22' W 002°27'11 2.0
2018-Sep-18 16:10N 49°29' W 002°15'215.9
2018-Sep-18 16:03N 49°31' W 002°14'115.3
2018-Sep-18 16:00N 49°31' W 002°13'915.8
2018-Sep-18 15:27N 49°39' W 002°06'614.3
2018-Sep-18 15:01N 49°45' W 002°02'114.9
2018-Sep-18 14:57N 49°45' W 002°01'1213.5
2018-Sep-18 14:03N 49°54' W 001°49'112.6
2018-Sep-18 14:00N 49°55' W 001°48'612.0
2018-Sep-18 13:30N 49°60' W 001°44'511.9
2018-Sep-18 13:03N 50°05' W 001°41'111.3
2018-Sep-18 13:00N 50°05' W 001°40'611.6
2018-Sep-18 12:30N 50°10' W 001°36'511.7
2018-Sep-18 12:03N 50°15' W 001°31'111.6
2018-Sep-18 12:00N 50°15' W 001°31'1511.9
2018-Sep-18 10:44N 50°28' W 001°17'312.3
2018-Sep-18 10:30N 50°30' W 001°14'613.1
2018-Sep-18 10:03N 50°35' W 001°09'115.6
2018-Sep-18 10:01N 50°35' W 001°09'815.4
2018-Sep-18 09:30N 50°42' W 001°02'614.1
2018-Sep-18 09:04N 50°47' W 001°07'110.3
2018-Sep-18 09:01N 50°48' W 001°07'1 2.0
2018-Sep-18 08:28N 50°49' W 001°06'0 0.0
2018-Sep-18 08:01N 50°49' W 001°06'0 0.0
2018-Sep-18 07:58N 50°49' W 001°06'0 0.0
2018-Sep-18 07:28N 50°49' W 001°06'0 0.0
2018-Sep-18 07:01N 50°49' W 001°06'0 0.1
2018-Sep-18 06:58N 50°49' W 001°06'0 0.0
2018-Sep-18 06:28N 50°49' W 001°06'0 0.0
2018-Sep-18 06:01N 50°49' W 001°06'0 0.9
2018-Sep-18 05:58N 50°49' W 001°06'3 6.5
2018-Sep-18 05:30N 50°46' W 001°05'511.7
2018-Sep-18 05:03N 50°41' W 001°03'116.7
2018-Sep-18 05:00N 50°40' W 001°04'815.9
2018-Sep-18 04:30N 50°33' W 001°11'512.3
2018-Sep-18 04:03N 50°29' W 001°16'112.7
2018-Sep-18 04:00N 50°28' W 001°16'812.7
2018-Sep-18 03:24N 50°22' W 001°22'514.4
2018-Sep-18 03:04N 50°17' W 001°26'117.8
2018-Sep-18 03:00N 50°17' W 001°27'918.1
2018-Sep-18 02:31N 50°09' W 001°35'818.1
2018-Sep-18 02:03N 50°03' W 001°43'118.6
2018-Sep-18 02:00N 50°02' W 001°44'918.6
2018-Sep-18 01:30N 49°54' W 001°51'919.3
2018-Sep-18 01:04N 49°47' W 001°58'120.7
2018-Sep-18 01:00N 49°46' W 001°60'1419.8
2018-Sep-18 00:18N 49°34' W 002°10'518.8
2018-Sep-18 00:01N 49°29' W 002°13'318.5
2018-Sep-17 23:52N 49°26' W 002°14'718.5
2018-Sep-17 23:29N 49°20' W 002°19'816.7
2018-Sep-17 22:59N 49°11' W 002°19'715.3
2018-Sep-17 22:30N 49°10' W 002°08'1 0.3
2018-Sep-17 20:07N 49°11' W 002°07'0 0.0
2018-Sep-17 19:52N 49°11' W 002°07'0 0.2
2018-Sep-17 19:30N 49°11' W 002°07'714.1
2018-Sep-17 19:00N 49°10' W 002°18'917.6
2018-Sep-17 18:30N 49°18' W 002°24'817.3
2018-Sep-17 18:03N 49°25' W 002°29'115.5
2018-Sep-17 18:00N 49°26' W 002°29'2 3.6
2018-Sep-17 17:24N 49°27' W 002°32'0 0.0
2018-Sep-17 17:00N 49°27' W 002°32'0 0.0
2018-Sep-17 16:21N 49°27' W 002°32'0 0.0
2018-Sep-17 16:00N 49°27' W 002°32'2 4.4
2018-Sep-17 15:30N 49°26' W 002°29'716.2
2018-Sep-17 15:03N 49°29' W 002°19'117.2
2018-Sep-17 14:59N 49°30' W 002°18'1015.7
2018-Sep-17 14:20N 49°38' W 002°07'415.4
2018-Sep-17 14:03N 49°42' W 002°05'114.5
2018-Sep-17 14:00N 49°42' W 002°05'713.9
2018-Sep-17 13:30N 49°48' W 001°58'714.4
2018-Sep-17 13:03N 49°52' W 001°51'114.9
2018-Sep-17 13:00N 49°53' W 001°50'815.2
2018-Sep-17 12:30N 49°58' W 001°41'715.5
2018-Sep-17 12:03N 50°04' W 001°35'116.2
2018-Sep-17 12:00N 50°04' W 001°35'816.0
2018-Sep-17 11:30N 50°12' W 001°30'716.2
2018-Sep-17 11:03N 50°18' W 001°24'116.8
2018-Sep-17 11:00N 50°19' W 001°23'816.6
2018-Sep-17 10:30N 50°25' W 001°16'816.7
2018-Sep-17 10:03N 50°32' W 001°09'117.0
2018-Sep-17 10:01N 50°32' W 001°08'816.8
2018-Sep-17 09:30N 50°39' W 001°01'715.0
2018-Sep-17 09:04N 50°46' W 001°05'112.3
2018-Sep-17 09:01N 50°46' W 001°05'3 5.2
2018-Sep-17 08:30N 50°49' W 001°06'0 0.0
2018-Sep-17 08:03N 50°49' W 001°06'0 0.1
2018-Sep-17 08:00N 50°49' W 001°06'0 0.0
2018-Sep-17 07:30N 50°49' W 001°06'0 0.0
2018-Sep-17 07:03N 50°49' W 001°06'0 0.1
2018-Sep-17 07:00N 50°49' W 001°06'0 0.0
2018-Sep-17 06:30N 50°49' W 001°06'0 0.0
2018-Sep-17 06:03N 50°49' W 001°06'0 0.1
2018-Sep-17 06:00N 50°49' W 001°06'0 0.0
2018-Sep-17 05:30N 50°49' W 001°06'0 0.0
2018-Sep-17 05:03N 50°49' W 001°06'0 0.0
2018-Sep-17 05:00N 50°49' W 001°06'0 0.0
2018-Sep-17 04:30N 50°49' W 001°06'0 0.0
2018-Sep-17 04:03N 50°49' W 001°06'0 0.1
2018-Sep-17 04:00N 50°49' W 001°06'0 0.0
2018-Sep-17 03:30N 50°49' W 001°06'0 0.0
2018-Sep-17 03:03N 50°49' W 001°06'0 0.0
2018-Sep-17 03:00N 50°49' W 001°06'0 0.0
2018-Sep-17 02:30N 50°49' W 001°06'0 0.0
2018-Sep-17 02:03N 50°49' W 001°06'0 0.0
2018-Sep-17 02:00N 50°49' W 001°06'0 0.0
2018-Sep-17 01:30N 50°49' W 001°06'0 0.0
2018-Sep-17 01:03N 50°49' W 001°06'0 0.0
2018-Sep-17 01:00N 50°49' W 001°06'0 0.0
2018-Sep-17 00:30N 50°49' W 001°06'0 0.0
2018-Sep-17 00:03N 50°49' W 001°06'0 0.1
2018-Sep-17 00:00N 50°49' W 001°06'0 0.0
2018-Sep-16 23:31N 50°49' W 001°06'0 0.0
2018-Sep-16 23:03N 50°49' W 001°06'0 0.0
2018-Sep-16 23:00N 50°49' W 001°06'0 0.0
2018-Sep-16 22:30N 50°49' W 001°06'0 0.0
2018-Sep-16 22:03N 50°49' W 001°06'0 0.1
2018-Sep-16 22:00N 50°49' W 001°06'0 0.0
2018-Sep-16 21:31N 50°49' W 001°06'0 0.0
2018-Sep-16 21:03N 50°49' W 001°06'0 0.0
2018-Sep-16 21:00N 50°49' W 001°06'0 0.0
2018-Sep-16 20:30N 50°49' W 001°06'0 0.0
2018-Sep-16 20:03N 50°49' W 001°06'0 0.1
2018-Sep-16 20:00N 50°49' W 001°06'0 0.0
2018-Sep-16 19:30N 50°49' W 001°06'0 0.0
2018-Sep-16 19:03N 50°49' W 001°06'0 0.1
2018-Sep-16 19:00N 50°49' W 001°06'0 0.0
2018-Sep-16 18:30N 50°49' W 001°06'0 0.0
2018-Sep-16 18:03N 50°49' W 001°06'0 0.1
2018-Sep-16 18:00N 50°49' W 001°06'0 0.0
2018-Sep-16 17:30N 50°49' W 001°06'0 0.0
2018-Sep-16 17:00N 50°49' W 001°06'0 0.0
2018-Sep-16 16:30N 50°49' W 001°06'0 0.0
2018-Sep-16 16:03N 50°49' W 001°06'0 0.0
2018-Sep-16 16:00N 50°49' W 001°06'0 0.0
2018-Sep-16 15:30N 50°49' W 001°06'0 0.0
2018-Sep-16 15:03N 50°49' W 001°06'0 0.1
2018-Sep-16 15:00N 50°49' W 001°06'0 0.0
2018-Sep-16 14:30N 50°49' W 001°06'0 0.0
2018-Sep-16 13:30N 50°49' W 001°06'0 0.0
2018-Sep-16 13:03N 50°49' W 001°06'0 0.1
2018-Sep-16 13:00N 50°49' W 001°06'0 0.0
2018-Sep-16 12:30N 50°49' W 001°06'0 0.0
2018-Sep-16 12:03N 50°49' W 001°06'0 0.1
2018-Sep-16 12:00N 50°49' W 001°06'0 0.0
2018-Sep-16 11:30N 50°49' W 001°06'0 0.0
2018-Sep-16 11:03N 50°49' W 001°06'0 0.0
2018-Sep-16 11:00N 50°49' W 001°06'0 0.0
2018-Sep-16 10:30N 50°49' W 001°06'0 0.0
2018-Sep-16 10:03N 50°49' W 001°06'0 0.0
2018-Sep-16 10:00N 50°49' W 001°06'0 0.0
2018-Sep-16 09:30N 50°49' W 001°06'0 0.0
2018-Sep-16 09:03N 50°49' W 001°06'0 0.1
2018-Sep-16 09:00N 50°49' W 001°06'0 0.0
2018-Sep-16 08:30N 50°49' W 001°06'0 0.0
2018-Sep-16 08:03N 50°49' W 001°06'0 0.1
2018-Sep-16 08:00N 50°49' W 001°06'0 0.0
2018-Sep-16 07:30N 50°49' W 001°06'0 0.0
2018-Sep-16 07:04N 50°49' W 001°06'0 0.1
2018-Sep-16 07:00N 50°49' W 001°06'0 0.0
2018-Sep-16 06:30N 50°49' W 001°06'0 0.0
2018-Sep-16 06:03N 50°49' W 001°06'0 0.1
2018-Sep-16 06:00N 50°49' W 001°06'0 0.0
2018-Sep-16 05:30N 50°49' W 001°06'1 1.7
2018-Sep-16 05:04N 50°48' W 001°07'0 7.6
2018-Sep-16 05:00N 50°48' W 001°07'713.9
2018-Sep-16 04:31N 50°42' W 001°03'715.4
2018-Sep-16 04:04N 50°36' W 001°08'115.3
2018-Sep-16 04:01N 50°35' W 001°09'713.0
2018-Sep-16 03:30N 50°30' W 001°16'612.5
2018-Sep-16 03:03N 50°26' W 001°22'112.4
2018-Sep-16 03:00N 50°25' W 001°22'612.6
2018-Sep-16 02:30N 50°21' W 001°28'612.8
2018-Sep-16 02:03N 50°16' W 001°34'112.7
2018-Sep-16 02:00N 50°16' W 001°35'612.4
2018-Sep-16 01:30N 50°10' W 001°40'613.1
2018-Sep-16 01:03N 50°06' W 001°45'113.0
2018-Sep-16 01:00N 50°05' W 001°46'612.9
2018-Sep-16 00:30N 50°00' W 001°52'612.3
2018-Sep-16 00:03N 49°55' W 001°55'112.5
2018-Sep-16 00:00N 49°54' W 001°56'713.2
2018-Sep-15 23:31N 49°48' W 001°59'816.8
2018-Sep-15 23:02N 49°41' W 002°04'116.8
2018-Sep-15 22:57N 49°40' W 002°05'716.1
2018-Sep-15 22:30N 49°33' W 002°09'613.9
2018-Sep-15 22:02N 49°27' W 002°14'112.1
2018-Sep-15 21:59N 49°27' W 002°14'918.5
2018-Sep-15 21:29N 49°18' W 002°19'816.2
2018-Sep-15 21:01N 49°11' W 002°18'014.2
2018-Sep-15 21:00N 49°11' W 002°18'713.7
2018-Sep-15 20:28N 49°11' W 002°07'0 0.0
2018-Sep-15 19:13N 49°11' W 002°07'0 0.0
2018-Sep-15 19:01N 49°11' W 002°07'0 0.0
2018-Sep-15 18:49N 49°11' W 002°07'0 0.3
2018-Sep-15 18:30N 49°11' W 002°07'712.6
2018-Sep-15 17:58N 49°10' W 002°17'918.3
2018-Sep-15 17:30N 49°18' W 002°24'817.9
2018-Sep-15 17:03N 49°25' W 002°29'117.5
2018-Sep-15 17:00N 49°26' W 002°29'2 4.6
2018-Sep-15 16:30N 49°27' W 002°32'0 0.0
2018-Sep-15 16:03N 49°27' W 002°32'0 0.0
2018-Sep-15 16:00N 49°27' W 002°32'0 0.0
2018-Sep-15 15:30N 49°27' W 002°32'3 6.6
2018-Sep-15 15:00N 49°26' W 002°27'918.2
2018-Sep-15 14:30N 49°31' W 002°16'1816.6
2018-Sep-15 13:26N 49°46' W 002°01'615.0
2018-Sep-15 13:03N 49°51' W 001°56'115.4
2018-Sep-15 13:00N 49°51' W 001°56'815.1
2018-Sep-15 12:30N 49°58' W 001°49'714.9
2018-Sep-15 12:03N 50°03' W 001°43'114.6
2018-Sep-15 12:00N 50°04' W 001°43'714.4
2018-Sep-15 11:30N 50°09' W 001°35'715.4
2018-Sep-15 11:03N 50°15' W 001°30'115.6
2018-Sep-15 11:00N 50°16' W 001°30'914.6
2018-Sep-15 10:22N 50°23' W 001°20'715.2
2018-Sep-15 09:54N 50°29' W 001°13'615.4
2018-Sep-15 09:30N 50°33' W 001°07'715.7
2018-Sep-15 09:04N 50°39' W 001°01'116.0
2018-Sep-15 09:01N 50°40' W 001°01'714.4
2018-Sep-15 08:30N 50°47' W 001°06'2 4.6
2018-Sep-15 08:03N 50°49' W 001°06'0 0.0
2018-Sep-15 08:00N 50°49' W 001°06'0 0.0
2018-Sep-15 07:30N 50°49' W 001°06'0 0.0
2018-Sep-15 07:03N 50°49' W 001°06'0 0.0
2018-Sep-15 07:00N 50°49' W 001°06'0 0.0
2018-Sep-15 06:30N 50°49' W 001°06'0 0.0
2018-Sep-15 06:03N 50°49' W 001°06'0 0.0
2018-Sep-15 06:00N 50°49' W 001°06'0 0.0
2018-Sep-15 05:30N 50°49' W 001°06'1 2.6
2018-Sep-15 05:03N 50°48' W 001°07'0 8.8
2018-Sep-15 05:00N 50°47' W 001°07'713.8
2018-Sep-15 04:31N 50°41' W 001°03'714.9
2018-Sep-15 04:03N 50°36' W 001°09'113.7
2018-Sep-15 04:00N 50°35' W 001°09'1614.0
2018-Sep-15 02:50N 50°22' W 001°25'412.4
2018-Sep-15 02:29N 50°18' W 001°29'512.7
2018-Sep-15 02:03N 50°14' W 001°34'113.3
2018-Sep-15 02:00N 50°14' W 001°35'713.3
2018-Sep-15 01:30N 50°08' W 001°41'613.7
2018-Sep-15 01:03N 50°03' W 001°47'114.1
2018-Sep-15 01:00N 50°03' W 001°48'713.9
2018-Sep-15 00:30N 49°58' W 001°55'612.8
2018-Sep-15 00:04N 49°52' W 001°59'112.1
2018-Sep-15 00:00N 49°52' W 001°59'813.8
2018-Sep-14 23:28N 49°45' W 002°03'820.4
2018-Sep-14 23:03N 49°37' W 002°08'319.8
2018-Sep-14 22:55N 49°35' W 002°09'919.5
2018-Sep-14 22:28N 49°27' W 002°15'819.4
2018-Sep-14 22:03N 49°19' W 002°19'  
Track history (hours):
 
Tides and Currents Weather Stations Pressure Air Temp Water Temp Dewpoint Dewpoint Depression Visibility Wind Speed Wind Dir Waves Ship Positions

Commodore Clipper

Operator: Condor Marine Services

Last reported at 2018-Sep-24 18:04 UTC. Time now 2018-Sep-24 21:06 UTC.
Position N 49°11' W 002°07'.

Length 130 m; draft 5.4 m.

Type: Ship. MMSI: 308094000.

Date/timePositionNaut miles runAvg speedWind from/ knotsBaromVisibWave heightAir tempDewpointWater temp
2018-Sep-24 18:04N 49°11' W 002°07'0 1.4
2018-Sep-24 18:01N 49°11' W 002°07'713.3
2018-Sep-24 17:30N 49°10' W 002°17'715.8
2018-Sep-24 17:03N 49°16' W 002°23'317.7
2018-Sep-24 16:51N 49°19' W 002°26'616.5
2018-Sep-24 16:30N 49°25' W 002°28'3 7.8
2018-Sep-24 16:04N 49°27' W 002°32'0 0.0
2018-Sep-24 16:00N 49°27' W 002°32'0 0.0
2018-Sep-24 15:31N 49°27' W 002°32'0 0.0
2018-Sep-24 15:04N 49°27' W 002°32'0 0.1
2018-Sep-24 15:01N 49°27' W 002°32'8 8.8
2018-Sep-24 14:03N 49°29' W 002°19'114.5
2018-Sep-24 14:00N 49°30' W 002°18'816.8
2018-Sep-24 13:31N 49°35' W 002°08'1221.2
2018-Sep-24 12:56N 49°46' W 002°01'919.7
2018-Sep-24 12:31N 49°53' W 001°53'919.2
2018-Sep-24 12:03N 50°00' W 001°45'118.9
2018-Sep-24 12:00N 50°01' W 001°44'917.9
2018-Sep-24 11:30N 50°09' W 001°39'1917.0
2018-Sep-24 10:22N 50°24' W 001°20'516.8
2018-Sep-24 10:03N 50°28' W 001°15'116.7
2018-Sep-24 10:01N 50°29' W 001°14'816.3
2018-Sep-24 09:31N 50°36' W 001°08'715.4
2018-Sep-24 09:04N 50°42' W 001°03'116.4
2018-Sep-24 09:01N 50°43' W 001°03'612.0
2018-Sep-24 08:31N 50°48' W 001°07'1 1.7
2018-Sep-24 08:03N 50°49' W 001°06'0 0.1
2018-Sep-24 08:01N 50°49' W 001°06'0 0.0
2018-Sep-24 07:31N 50°49' W 001°06'0 0.0
2018-Sep-24 07:04N 50°49' W 001°06'0 0.1
2018-Sep-24 07:01N 50°49' W 001°06'0 0.0
2018-Sep-24 06:31N 50°49' W 001°06'0 0.0
2018-Sep-24 06:03N 50°49' W 001°06'0 0.1
2018-Sep-24 06:00N 50°49' W 001°06'0 0.0
2018-Sep-24 05:30N 50°49' W 001°06'0 0.0
2018-Sep-24 05:04N 50°49' W 001°06'0 0.0
2018-Sep-24 05:01N 50°49' W 001°06'0 0.0
2018-Sep-24 04:31N 50°49' W 001°06'0 0.0
2018-Sep-24 04:03N 50°49' W 001°06'0 0.3
2018-Sep-24 04:01N 50°49' W 001°06'0 0.0
2018-Sep-24 03:31N 50°49' W 001°06'0 0.0
2018-Sep-24 03:04N 50°49' W 001°06'0 0.0
2018-Sep-24 03:00N 50°49' W 001°06'0 0.0
2018-Sep-24 02:31N 50°49' W 001°06'0 0.0
2018-Sep-24 02:04N 50°49' W 001°06'0 0.0
2018-Sep-24 02:01N 50°49' W 001°06'0 0.0
2018-Sep-24 01:31N 50°49' W 001°06'0 0.0
2018-Sep-24 01:04N 50°49' W 001°06'0 0.0
2018-Sep-24 01:01N 50°49' W 001°06'0 0.0
2018-Sep-24 00:31N 50°49' W 001°06'0 0.0
2018-Sep-24 00:04N 50°49' W 001°06'0 0.0
2018-Sep-24 00:01N 50°49' W 001°06'0 0.0
2018-Sep-23 23:31N 50°49' W 001°06'0 0.0
2018-Sep-23 23:04N 50°49' W 001°06'0 0.1
2018-Sep-23 23:01N 50°49' W 001°06'0 0.0
2018-Sep-23 22:31N 50°49' W 001°06'0 0.0
2018-Sep-23 22:04N 50°49' W 001°06'0 0.0
2018-Sep-23 22:01N 50°49' W 001°06'0 0.0
2018-Sep-23 21:31N 50°49' W 001°06'0 0.0
2018-Sep-23 21:03N 50°49' W 001°06'0 0.0
2018-Sep-23 21:00N 50°49' W 001°06'0 0.0
2018-Sep-23 20:31N 50°49' W 001°06'0 0.0
2018-Sep-23 20:04N 50°49' W 001°06'0 0.1
2018-Sep-23 20:01N 50°49' W 001°06'0 0.0
2018-Sep-23 19:31N 50°49' W 001°06'0 0.0
2018-Sep-23 19:04N 50°49' W 001°06'0 0.0
2018-Sep-23 19:01N 50°49' W 001°06'0 0.0
2018-Sep-23 18:30N 50°49' W 001°06'0 0.0
2018-Sep-23 18:04N 50°49' W 001°06'0 0.0
2018-Sep-23 18:01N 50°49' W 001°06'0 0.0
2018-Sep-23 17:31N 50°49' W 001°06'0 0.0
2018-Sep-23 17:03N 50°49' W 001°06'0 0.0
2018-Sep-23 17:01N 50°49' W 001°06'0 0.0
2018-Sep-23 16:31N 50°49' W 001°06'0 0.0
2018-Sep-23 16:04N 50°49' W 001°06'0 0.0
2018-Sep-23 16:01N 50°49' W 001°06'0 0.0
2018-Sep-23 15:31N 50°49' W 001°06'0 0.0
2018-Sep-23 15:04N 50°49' W 001°06'0 0.1
2018-Sep-23 15:01N 50°49' W 001°06'0 0.0
2018-Sep-23 14:01N 50°49' W 001°06'0 0.0
2018-Sep-23 13:31N 50°49' W 001°06'0 0.0
2018-Sep-23 13:04N 50°49' W 001°06'0 0.0
2018-Sep-23 13:01N 50°49' W 001°06'0 0.0
2018-Sep-23 12:31N 50°49' W 001°06'0 0.0
2018-Sep-23 12:04N 50°49' W 001°06'0 0.0
2018-Sep-23 12:01N 50°49' W 001°06'0 0.0
2018-Sep-23 11:31N 50°49' W 001°06'0 0.0
2018-Sep-23 11:04N 50°49' W 001°06'0 0.0
2018-Sep-23 11:01N 50°49' W 001°06'0 0.0
2018-Sep-23 10:31N 50°49' W 001°06'0 0.0
2018-Sep-23 10:03N 50°49' W 001°06'0 0.0
2018-Sep-23 10:01N 50°49' W 001°06'0 0.0
2018-Sep-23 09:31N 50°49' W 001°06'0 0.0
2018-Sep-23 09:04N 50°49' W 001°06'0 0.0
2018-Sep-23 09:01N 50°49' W 001°06'0 0.0
2018-Sep-23 08:31N 50°49' W 001°06'0 0.0
2018-Sep-23 08:04N 50°49' W 001°06'0 0.0
2018-Sep-23 08:01N 50°49' W 001°06'0 0.0
2018-Sep-23 07:31N 50°49' W 001°06'0 0.0
2018-Sep-23 07:03N 50°49' W 001°06'0 0.1
2018-Sep-23 07:01N 50°49' W 001°06'0 0.0
2018-Sep-23 06:31N 50°49' W 001°06'0 0.0
2018-Sep-23 06:03N 50°49' W 001°06'0 0.0
2018-Sep-23 06:00N 50°49' W 001°06'0 0.0
2018-Sep-23 05:30N 50°49' W 001°06'1 2.8
2018-Sep-23 05:04N 50°48' W 001°07'110.4
2018-Sep-23 05:00N 50°47' W 001°06'713.5
2018-Sep-23 04:30N 50°42' W 001°00'714.5
2018-Sep-23 04:03N 50°36' W 001°05'114.5
2018-Sep-23 04:01N 50°35' W 001°06'814.9
2018-Sep-23 03:30N 50°29' W 001°12'815.5
2018-Sep-23 02:59N 50°22' W 001°19'3313.7
2018-Sep-23 00:33N 49°56' W 001°51'614.6
2018-Sep-23 00:10N 49°51' W 001°56'314.1
2018-Sep-22 23:57N 49°49' W 001°59'712.8
2018-Sep-22 23:25N 49°43' W 002°04'412.6
2018-Sep-22 23:04N 49°39' W 002°07'114.5
2018-Sep-22 23:00N 49°38' W 002°08'714.7
2018-Sep-22 22:30N 49°32' W 002°14'716.2
2018-Sep-22 22:04N 49°28' W 002°23'115.4
2018-Sep-22 22:01N 49°27' W 002°24'510.1
2018-Sep-22 21:30N 49°27' W 002°32'0 0.0
2018-Sep-22 21:03N 49°27' W 002°32'0 0.1
2018-Sep-22 21:00N 49°27' W 002°32'0 0.0
2018-Sep-22 20:30N 49°27' W 002°32'0 0.0
2018-Sep-22 20:03N 49°27' W 002°32'0 0.0
2018-Sep-22 20:00N 49°27' W 002°32'2 3.7
2018-Sep-22 19:31N 49°26' W 002°29'612.4
2018-Sep-22 19:03N 49°28' W 002°21'115.8
2018-Sep-22 19:01N 49°29' W 002°21'914.1
2018-Sep-22 18:22N 49°34' W 002°10'612.6
2018-Sep-22 17:55N 49°39' W 002°06'1411.2
2018-Sep-22 16:43N 49°51' W 001°55'314.0
2018-Sep-22 16:31N 49°53' W 001°53'915.4
2018-Sep-22 15:54N 50°00' W 001°43'2816.4
2018-Sep-22 14:13N 50°24' W 001°22'517.4
2018-Sep-22 13:56N 50°28' W 001°17'818.3
2018-Sep-22 13:31N 50°35' W 001°10'818.2
2018-Sep-22 13:04N 50°41' W 001°03'117.6
2018-Sep-22 13:01N 50°42' W 001°03'713.5
2018-Sep-22 12:31N 50°48' W 001°07'1 1.9
2018-Sep-22 12:02N 50°49' W 001°06'0 0.0
2018-Sep-22 11:59N 50°49' W 001°06'0 0.0
2018-Sep-22 11:29N 50°49' W 001°06'0 0.0
2018-Sep-22 11:02N 50°49' W 001°06'0 0.1
2018-Sep-22 10:59N 50°49' W 001°06'0 0.0
2018-Sep-22 10:29N 50°49' W 001°06'0 0.1
2018-Sep-22 10:03N 50°49' W 001°06'0 1.9
2018-Sep-22 09:58N 50°49' W 001°06'3 7.4
2018-Sep-22 09:30N 50°45' W 001°05'510.9
2018-Sep-22 09:03N 50°40' W 001°03'111.8
2018-Sep-22 09:01N 50°40' W 001°04'816.0
2018-Sep-22 08:30N 50°33' W 001°10'6817.9
2018-Sep-22 04:43N 49°36' W 002°08'519.1
2018-Sep-22 04:26N 49°31' W 002°11'718.3
2018-Sep-22 04:03N 49°24' W 002°15'218.2
2018-Sep-22 03:58N 49°23' W 002°16'13 3.0
2018-Sep-21 23:42N 49°11' W 002°18'614.6
2018-Sep-21 23:16N 49°13' W 002°27'313.5
2018-Sep-21 23:02N 49°15' W 002°31'213.7
2018-Sep-21 22:55N 49°17' W 002°31'716.5
2018-Sep-21 22:30N 49°23' W 002°28'5 8.2
2018-Sep-21 21:55N 49°27' W 002°32'0 0.0
2018-Sep-21 21:31N 49°27' W 002°32'0 0.0
2018-Sep-21 21:01N 49°27' W 002°32'1 1.2
2018-Sep-21 20:30N 49°27' W 002°31'510.9
2018-Sep-21 20:03N 49°28' W 002°23'117.3
2018-Sep-21 20:00N 49°28' W 002°22'816.1
2018-Sep-21 19:29N 49°33' W 002°12'6611.8
2018-Sep-21 13:55N 50°27' W 001°14'512.4
2018-Sep-21 13:30N 50°32' W 001°11'715.3
2018-Sep-21 13:03N 50°38' W 001°06'116.0
2018-Sep-21 13:00N 50°39' W 001°05'713.0
2018-Sep-21 12:30N 50°45' W 001°05'4 7.9
2018-Sep-21 12:04N 50°49' W 001°06'0 5.5
2018-Sep-21 12:01N 50°49' W 001°06'0 0.3
2018-Sep-21 11:28N 50°49' W 001°06'0 0.0
2018-Sep-21 11:01N 50°49' W 001°06'0 0.0
2018-Sep-21 10:58N 50°49' W 001°06'0 0.0
2018-Sep-21 10:25N 50°49' W 001°06'0 0.0
2018-Sep-21 10:01N 50°49' W 001°06'0 0.1
2018-Sep-21 09:58N 50°49' W 001°06'0 0.0
2018-Sep-21 09:28N 50°49' W 001°06'0 0.3
2018-Sep-21 09:03N 50°49' W 001°06'0 1.6
2018-Sep-21 09:00N 50°49' W 001°06'5 9.0
2018-Sep-21 08:30N 50°44' W 001°04'4 8.7
2018-Sep-21 08:03N 50°40' W 001°03'116.7
2018-Sep-21 08:00N 50°40' W 001°04'7017.1
2018-Sep-21 03:53N 49°41' W 002°06'714.9
2018-Sep-21 03:24N 49°34' W 002°04'816.9
2018-Sep-21 02:56N 49°27' W 002°10'716.1
2018-Sep-21 02:31N 49°22' W 002°16'714.9
2018-Sep-21 02:02N 49°16' W 002°23'2 0.3
2018-Sep-20 20:57N 49°15' W 002°21'715.5
2018-Sep-20 20:30N 49°21' W 002°26'715.5
2018-Sep-20 20:03N 49°27' W 002°31'0 4.8
2018-Sep-20 19:58N 49°27' W 002°32'0 0.0
2018-Sep-20 19:29N 49°27' W 002°32'0 0.0
2018-Sep-20 18:59N 49°27' W 002°32'0 0.0
2018-Sep-20 18:29N 49°27' W 002°32'3 7.6
2018-Sep-20 18:04N 49°25' W 002°28'115.4
2018-Sep-20 18:01N 49°26' W 002°27'815.8
2018-Sep-20 17:30N 49°31' W 002°17'1713.7
2018-Sep-20 16:17N 49°45' W 002°03'313.2
2018-Sep-20 16:03N 49°46' W 001°59'112.7
2018-Sep-20 16:00N 49°46' W 001°58'713.3
2018-Sep-20 15:31N 49°49' W 001°49'614.3
2018-Sep-20 15:03N 49°53' W 001°41'115.1
2018-Sep-20 15:00N 49°54' W 001°40'1515.6
2018-Sep-20 14:03N 50°08' W 001°32'115.8
2018-Sep-20 14:01N 50°08' W 001°32'816.1
2018-Sep-20 13:30N 50°16' W 001°26'1316.1
2018-Sep-20 12:43N 50°27' W 001°17'416.0
2018-Sep-20 12:30N 50°30' W 001°14'716.4
2018-Sep-20 12:03N 50°36' W 001°08'116.8
2018-Sep-20 12:00N 50°37' W 001°07'714.9
2018-Sep-20 11:30N 50°43' W 001°02'512.1
2018-Sep-20 11:03N 50°48' W 001°07'0 7.4
2018-Sep-20 11:00N 50°48' W 001°07'1 1.4
2018-Sep-20 10:28N 50°49' W 001°06'0 0.0
2018-Sep-20 10:01N 50°49' W 001°06'0 0.1
2018-Sep-20 09:58N 50°49' W 001°06'0 0.0
2018-Sep-20 09:28N 50°49' W 001°06'0 0.0
2018-Sep-20 09:01N 50°49' W 001°06'0 0.1
2018-Sep-20 08:58N 50°49' W 001°06'0 0.0
2018-Sep-20 08:28N 50°49' W 001°06'0 0.0
2018-Sep-20 08:01N 50°49' W 001°06'0 0.0
2018-Sep-20 07:58N 50°49' W 001°06'2 4.7
2018-Sep-20 07:30N 50°47' W 001°06'613.4
2018-Sep-20 07:03N 50°41' W 001°03'117.4
2018-Sep-20 07:00N 50°40' W 001°04'916.2
2018-Sep-20 06:26N 50°33' W 001°12'1613.2
2018-Sep-20 05:15N 50°19' W 001°26'313.3
2018-Sep-20 05:03N 50°17' W 001°28'113.4
2018-Sep-20 05:00N 50°17' W 001°28'713.6
2018-Sep-20 04:30N 50°11' W 001°34'715.8
2018-Sep-20 04:04N 50°05' W 001°41'117.9
2018-Sep-20 04:01N 50°05' W 001°41'918.2
2018-Sep-20 03:30N 49°57' W 001°49'1018.7
2018-Sep-20 03:00N 49°49' W 001°57'1319.2
2018-Sep-20 02:19N 49°37' W 002°06'518.2
2018-Sep-20 02:01N 49°32' W 002°09'318.0
2018-Sep-20 01:52N 49°30' W 002°11'717.6
2018-Sep-20 01:27N 49°23' W 002°17'7 1.5
2018-Sep-19 20:58N 49°19' W 002°24'817.0
2018-Sep-19 20:30N 49°26' W 002°29'2 3.8
2018-Sep-19 19:56N 49°27' W 002°32'0 0.0
2018-Sep-19 19:26N 49°27' W 002°32'0 0.0
2018-Sep-19 19:02N 49°27' W 002°32'0 0.0
2018-Sep-19 18:56N 49°27' W 002°32'0 0.0
2018-Sep-19 18:26N 49°27' W 002°32'2 5.3
2018-Sep-19 18:04N 49°26' W 002°29'115.4
2018-Sep-19 18:01N 49°25' W 002°29'916.1
2018-Sep-19 17:28N 49°30' W 002°18'1714.7
2018-Sep-19 16:17N 49°45' W 002°02'314.0
2018-Sep-19 16:03N 49°47' W 001°59'113.4
2018-Sep-19 16:00N 49°48' W 001°59'714.2
2018-Sep-19 15:30N 49°53' W 001°52'614.3
2018-Sep-19 15:03N 49°59' W 001°47'114.1
2018-Sep-19 15:00N 49°59' W 001°46'1414.5
2018-Sep-19 14:04N 50°11' W 001°34'814.7
2018-Sep-19 13:30N 50°17' W 001°27'1014.8
2018-Sep-19 12:50N 50°26' W 001°19'515.0
2018-Sep-19 12:30N 50°30' W 001°14'715.0
2018-Sep-19 12:03N 50°36' W 001°09'115.5
2018-Sep-19 12:00N 50°36' W 001°08'714.9
2018-Sep-19 11:30N 50°43' W 001°02'613.3
2018-Sep-19 11:03N 50°48' W 001°07'0 6.1
2018-Sep-19 11:00N 50°48' W 001°07'1 2.1
2018-Sep-19 10:30N 50°49' W 001°06'0 0.0
2018-Sep-19 10:03N 50°49' W 001°06'0 0.1
2018-Sep-19 10:00N 50°49' W 001°06'0 0.0
2018-Sep-19 09:30N 50°49' W 001°06'0 0.0
2018-Sep-19 09:03N 50°49' W 001°06'0 0.0
2018-Sep-19 09:00N 50°49' W 001°06'0 0.0
2018-Sep-19 08:30N 50°49' W 001°06'0 0.0
2018-Sep-19 08:03N 50°49' W 001°06'0 0.0
2018-Sep-19 08:00N 50°49' W 001°06'0 0.0
2018-Sep-19 07:30N 50°49' W 001°06'2 4.3
2018-Sep-19 07:03N 50°47' W 001°06'0 9.4
2018-Sep-19 07:00N 50°47' W 001°06'612.8
2018-Sep-19 06:30N 50°40' W 001°04'716.5
2018-Sep-19 06:03N 50°34' W 001°10'115.2
2018-Sep-19 05:59N 50°33' W 001°11'1312.3
2018-Sep-19 04:57N 50°22' W 001°21'512.3
2018-Sep-19 04:30N 50°17' W 001°26'612.8
2018-Sep-19 04:03N 50°12' W 001°31'112.8
2018-Sep-19 04:00N 50°12' W 001°31'612.8
2018-Sep-19 03:30N 50°07' W 001°38'612.8
2018-Sep-19 03:03N 50°02' W 001°43'114.1
2018-Sep-19 03:01N 50°02' W 001°43'714.5
2018-Sep-19 02:30N 49°56' W 001°50'715.7
2018-Sep-19 02:03N 49°50' W 001°56'118.9
2018-Sep-19 02:00N 49°49' W 001°57'1218.4
2018-Sep-19 01:19N 49°38' W 002°07'517.9
2018-Sep-19 01:02N 49°34' W 002°10'118.2
2018-Sep-19 00:58N 49°33' W 002°12'917.9
2018-Sep-19 00:29N 49°28' W 002°22'512.6
2018-Sep-19 00:04N 49°27' W 002°31'111.2
2018-Sep-19 00:01N 49°27' W 002°32'0 0.2
2018-Sep-18 23:26N 49°27' W 002°32'0 0.0
2018-Sep-18 23:02N 49°27' W 002°32'0 0.0
2018-Sep-18 22:56N 49°27' W 002°32'0 0.0
2018-Sep-18 22:26N 49°27' W 002°32'0 0.1
2018-Sep-18 22:02N 49°27' W 002°32'0 0.5
2018-Sep-18 22:00N 49°27' W 002°32'611.8
2018-Sep-18 21:31N 49°22' W 002°27'11 2.0
2018-Sep-18 16:10N 49°29' W 002°15'215.9
2018-Sep-18 16:03N 49°31' W 002°14'115.3
2018-Sep-18 16:00N 49°31' W 002°13'915.8
2018-Sep-18 15:27N 49°39' W 002°06'614.3
2018-Sep-18 15:01N 49°45' W 002°02'114.9
2018-Sep-18 14:57N 49°45' W 002°01'1213.5
2018-Sep-18 14:03N 49°54' W 001°49'112.6
2018-Sep-18 14:00N 49°55' W 001°48'612.0
2018-Sep-18 13:30N 49°60' W 001°44'511.9
2018-Sep-18 13:03N 50°05' W 001°41'111.3
2018-Sep-18 13:00N 50°05' W 001°40'611.6
2018-Sep-18 12:30N 50°10' W 001°36'511.7
2018-Sep-18 12:03N 50°15' W 001°31'111.6
2018-Sep-18 12:00N 50°15' W 001°31'1511.9
2018-Sep-18 10:44N 50°28' W 001°17'312.3
2018-Sep-18 10:30N 50°30' W 001°14'613.1
2018-Sep-18 10:03N 50°35' W 001°09'115.6
2018-Sep-18 10:01N 50°35' W 001°09'815.4
2018-Sep-18 09:30N 50°42' W 001°02'614.1
2018-Sep-18 09:04N 50°47' W 001°07'110.3
2018-Sep-18 09:01N 50°48' W 001°07'1 2.0
2018-Sep-18 08:28N 50°49' W 001°06'0 0.0
2018-Sep-18 08:01N 50°49' W 001°06'0 0.0
2018-Sep-18 07:58N 50°49' W 001°06'0 0.0
2018-Sep-18 07:28N 50°49' W 001°06'0 0.0
2018-Sep-18 07:01N 50°49' W 001°06'0 0.1
2018-Sep-18 06:58N 50°49' W 001°06'0 0.0
2018-Sep-18 06:28N 50°49' W 001°06'0 0.0
2018-Sep-18 06:01N 50°49' W 001°06'0 0.9
2018-Sep-18 05:58N 50°49' W 001°06'3 6.5
2018-Sep-18 05:30N 50°46' W 001°05'511.7
2018-Sep-18 05:03N 50°41' W 001°03'116.7
2018-Sep-18 05:00N 50°40' W 001°04'815.9
2018-Sep-18 04:30N 50°33' W 001°11'512.3
2018-Sep-18 04:03N 50°29' W 001°16'112.7
2018-Sep-18 04:00N 50°28' W 001°16'812.7
2018-Sep-18 03:24N 50°22' W 001°22'514.4
2018-Sep-18 03:04N 50°17' W 001°26'117.8
2018-Sep-18 03:00N 50°17' W 001°27'918.1
2018-Sep-18 02:31N 50°09' W 001°35'818.1
2018-Sep-18 02:03N 50°03' W 001°43'118.6
2018-Sep-18 02:00N 50°02' W 001°44'918.6
2018-Sep-18 01:30N 49°54' W 001°51'919.3
2018-Sep-18 01:04N 49°47' W 001°58'120.7
2018-Sep-18 01:00N 49°46' W 001°60'1419.8
2018-Sep-18 00:18N 49°34' W 002°10'518.8
2018-Sep-18 00:01N 49°29' W 002°13'318.5
2018-Sep-17 23:52N 49°26' W 002°14'718.5
2018-Sep-17 23:29N 49°20' W 002°19'816.7
2018-Sep-17 22:59N 49°11' W 002°19'715.3
2018-Sep-17 22:30N 49°10' W 002°08'1 0.3
2018-Sep-17 20:07N 49°11' W 002°07'0 0.0
2018-Sep-17 19:52N 49°11' W 002°07'0 0.2
2018-Sep-17 19:30N 49°11' W 002°07'714.1
2018-Sep-17 19:00N 49°10' W 002°18'917.6
2018-Sep-17 18:30N 49°18' W 002°24'817.3
2018-Sep-17 18:03N 49°25' W 002°29'115.5
2018-Sep-17 18:00N 49°26' W 002°29'2 3.6
2018-Sep-17 17:24N 49°27' W 002°32'0 0.0
2018-Sep-17 17:00N 49°27' W 002°32'0 0.0
2018-Sep-17 16:21N 49°27' W 002°32'0 0.0
2018-Sep-17 16:00N 49°27' W 002°32'2 4.4
2018-Sep-17 15:30N 49°26' W 002°29'716.2
2018-Sep-17 15:03N 49°29' W 002°19'117.2
2018-Sep-17 14:59N 49°30' W 002°18'1015.7
2018-Sep-17 14:20N 49°38' W 002°07'415.4
2018-Sep-17 14:03N 49°42' W 002°05'114.5
2018-Sep-17 14:00N 49°42' W 002°05'713.9
2018-Sep-17 13:30N 49°48' W 001°58'714.4
2018-Sep-17 13:03N 49°52' W 001°51'114.9
2018-Sep-17 13:00N 49°53' W 001°50'815.2
2018-Sep-17 12:30N 49°58' W 001°41'715.5
2018-Sep-17 12:03N 50°04' W 001°35'116.2
2018-Sep-17 12:00N 50°04' W 001°35'816.0
2018-Sep-17 11:30N 50°12' W 001°30'716.2
2018-Sep-17 11:03N 50°18' W 001°24'116.8
2018-Sep-17 11:00N 50°19' W 001°23'816.6
2018-Sep-17 10:30N 50°25' W 001°16'816.7
2018-Sep-17 10:03N 50°32' W 001°09'117.0
2018-Sep-17 10:01N 50°32' W 001°08'816.8
2018-Sep-17 09:30N 50°39' W 001°01'715.0
2018-Sep-17 09:04N 50°46' W 001°05'112.3
2018-Sep-17 09:01N 50°46' W 001°05'3 5.2
2018-Sep-17 08:30N 50°49' W 001°06'0 0.0
2018-Sep-17 08:03N 50°49' W 001°06'0 0.1
2018-Sep-17 08:00N 50°49' W 001°06'0 0.0
2018-Sep-17 07:30N 50°49' W 001°06'0 0.0
2018-Sep-17 07:03N 50°49' W 001°06'0 0.1
2018-Sep-17 07:00N 50°49' W 001°06'0 0.0
2018-Sep-17 06:30N 50°49' W 001°06'0 0.0
2018-Sep-17 06:03N 50°49' W 001°06'0 0.1
2018-Sep-17 06:00N 50°49' W 001°06'0 0.0
2018-Sep-17 05:30N 50°49' W 001°06'0 0.0
2018-Sep-17 05:03N 50°49' W 001°06'0 0.0
2018-Sep-17 05:00N 50°49' W 001°06'0 0.0
2018-Sep-17 04:30N 50°49' W 001°06'0 0.0
2018-Sep-17 04:03N 50°49' W 001°06'0 0.1
2018-Sep-17 04:00N 50°49' W 001°06'0 0.0
2018-Sep-17 03:30N 50°49' W 001°06'0 0.0
2018-Sep-17 03:03N 50°49' W 001°06'0 0.0
2018-Sep-17 03:00N 50°49' W 001°06'0 0.0
2018-Sep-17 02:30N 50°49' W 001°06'0 0.0
2018-Sep-17 02:03N 50°49' W 001°06'0 0.0
2018-Sep-17 02:00N 50°49' W 001°06'0 0.0
2018-Sep-17 01:30N 50°49' W 001°06'0 0.0
2018-Sep-17 01:03N 50°49' W 001°06'0 0.0
2018-Sep-17 01:00N 50°49' W 001°06'0 0.0
2018-Sep-17 00:30N 50°49' W 001°06'0 0.0
2018-Sep-17 00:03N 50°49' W 001°06'0 0.1
2018-Sep-17 00:00N 50°49' W 001°06'0 0.0
2018-Sep-16 23:31N 50°49' W 001°06'0 0.0
2018-Sep-16 23:03N 50°49' W 001°06'0 0.0
2018-Sep-16 23:00N 50°49' W 001°06'0 0.0
2018-Sep-16 22:30N 50°49' W 001°06'0 0.0
2018-Sep-16 22:03N 50°49' W 001°06'0 0.1
2018-Sep-16 22:00N 50°49' W 001°06'0 0.0
2018-Sep-16 21:31N 50°49' W 001°06'0 0.0
2018-Sep-16 21:03N 50°49' W 001°06'0 0.0
2018-Sep-16 21:00N 50°49' W 001°06'0 0.0
2018-Sep-16 20:30N 50°49' W 001°06'0 0.0
2018-Sep-16 20:03N 50°49' W 001°06'0 0.1
2018-Sep-16 20:00N 50°49' W 001°06'0 0.0
2018-Sep-16 19:30N 50°49' W 001°06'0 0.0
2018-Sep-16 19:03N 50°49' W 001°06'0 0.1
2018-Sep-16 19:00N 50°49' W 001°06'0 0.0
2018-Sep-16 18:30N 50°49' W 001°06'0 0.0
2018-Sep-16 18:03N 50°49' W 001°06'0 0.1
2018-Sep-16 18:00N 50°49' W 001°06'0 0.0
2018-Sep-16 17:30N 50°49' W 001°06'0 0.0
2018-Sep-16 17:00N 50°49' W 001°06'0 0.0
2018-Sep-16 16:30N 50°49' W 001°06'0 0.0
2018-Sep-16 16:03N 50°49' W 001°06'0 0.0
2018-Sep-16 16:00N 50°49' W 001°06'0 0.0
2018-Sep-16 15:30N 50°49' W 001°06'0 0.0
2018-Sep-16 15:03N 50°49' W 001°06'0 0.1
2018-Sep-16 15:00N 50°49' W 001°06'0 0.0
2018-Sep-16 14:30N 50°49' W 001°06'0 0.0
2018-Sep-16 13:30N 50°49' W 001°06'0 0.0
2018-Sep-16 13:03N 50°49' W 001°06'0 0.1
2018-Sep-16 13:00N 50°49' W 001°06'0 0.0
2018-Sep-16 12:30N 50°49' W 001°06'0 0.0
2018-Sep-16 12:03N 50°49' W 001°06'0 0.1
2018-Sep-16 12:00N 50°49' W 001°06'0 0.0
2018-Sep-16 11:30N 50°49' W 001°06'0 0.0
2018-Sep-16 11:03N 50°49' W 001°06'0 0.0
2018-Sep-16 11:00N 50°49' W 001°06'0 0.0
2018-Sep-16 10:30N 50°49' W 001°06'0 0.0
2018-Sep-16 10:03N 50°49' W 001°06'0 0.0
2018-Sep-16 10:00N 50°49' W 001°06'0 0.0
2018-Sep-16 09:30N 50°49' W 001°06'0 0.0
2018-Sep-16 09:03N 50°49' W 001°06'0 0.1
2018-Sep-16 09:00N 50°49' W 001°06'0 0.0
2018-Sep-16 08:30N 50°49' W 001°06'0 0.0
2018-Sep-16 08:03N 50°49' W 001°06'0 0.1
2018-Sep-16 08:00N 50°49' W 001°06'0 0.0
2018-Sep-16 07:30N 50°49' W 001°06'0 0.0
2018-Sep-16 07:04N 50°49' W 001°06'0 0.1
2018-Sep-16 07:00N 50°49' W 001°06'0 0.0
2018-Sep-16 06:30N 50°49' W 001°06'0 0.0
2018-Sep-16 06:03N 50°49' W 001°06'0 0.1
2018-Sep-16 06:00N 50°49' W 001°06'0 0.0
2018-Sep-16 05:30N 50°49' W 001°06'1 1.7
2018-Sep-16 05:04N 50°48' W 001°07'0 7.6
2018-Sep-16 05:00N 50°48' W 001°07'713.9
2018-Sep-16 04:31N 50°42' W 001°03'715.4
2018-Sep-16 04:04N 50°36' W 001°08'115.3
2018-Sep-16 04:01N 50°35' W 001°09'713.0
2018-Sep-16 03:30N 50°30' W 001°16'612.5
2018-Sep-16 03:03N 50°26' W 001°22'112.4
2018-Sep-16 03:00N 50°25' W 001°22'612.6
2018-Sep-16 02:30N 50°21' W 001°28'612.8
2018-Sep-16 02:03N 50°16' W 001°34'112.7
2018-Sep-16 02:00N 50°16' W 001°35'612.4
2018-Sep-16 01:30N 50°10' W 001°40'613.1
2018-Sep-16 01:03N 50°06' W 001°45'113.0
2018-Sep-16 01:00N 50°05' W 001°46'612.9
2018-Sep-16 00:30N 50°00' W 001°52'612.3
2018-Sep-16 00:03N 49°55' W 001°55'112.5
2018-Sep-16 00:00N 49°54' W 001°56'713.2
2018-Sep-15 23:31N 49°48' W 001°59'816.8
2018-Sep-15 23:02N 49°41' W 002°04'116.8
2018-Sep-15 22:57N 49°40' W 002°05'716.1
2018-Sep-15 22:30N 49°33' W 002°09'613.9
2018-Sep-15 22:02N 49°27' W 002°14'112.1
2018-Sep-15 21:59N 49°27' W 002°14'918.5
2018-Sep-15 21:29N 49°18' W 002°19'816.2
2018-Sep-15 21:01N 49°11' W 002°18'014.2
2018-Sep-15 21:00N 49°11' W 002°18'713.7
2018-Sep-15 20:28N 49°11' W 002°07'0 0.0
2018-Sep-15 19:13N 49°11' W 002°07'0 0.0
2018-Sep-15 19:01N 49°11' W 002°07'0 0.0
2018-Sep-15 18:49N 49°11' W 002°07'0 0.3
2018-Sep-15 18:30N 49°11' W 002°07'712.6
2018-Sep-15 17:58N 49°10' W 002°17'918.3
2018-Sep-15 17:30N 49°18' W 002°24'817.9
2018-Sep-15 17:03N 49°25' W 002°29'117.5
2018-Sep-15 17:00N 49°26' W 002°29'2 4.6
2018-Sep-15 16:30N 49°27' W 002°32'0 0.0
2018-Sep-15 16:03N 49°27' W 002°32'0 0.0
2018-Sep-15 16:00N 49°27' W 002°32'0 0.0
2018-Sep-15 15:30N 49°27' W 002°32'3 6.6
2018-Sep-15 15:00N 49°26' W 002°27'918.2
2018-Sep-15 14:30N 49°31' W 002°16'1816.6
2018-Sep-15 13:26N 49°46' W 002°01'615.0
2018-Sep-15 13:03N 49°51' W 001°56'115.4
2018-Sep-15 13:00N 49°51' W 001°56'815.1
2018-Sep-15 12:30N 49°58' W 001°49'714.9
2018-Sep-15 12:03N 50°03' W 001°43'114.6
2018-Sep-15 12:00N 50°04' W 001°43'714.4
2018-Sep-15 11:30N 50°09' W 001°35'715.4
2018-Sep-15 11:03N 50°15' W 001°30'115.6
2018-Sep-15 11:00N 50°16' W 001°30'914.6
2018-Sep-15 10:22N 50°23' W 001°20'715.2
2018-Sep-15 09:54N 50°29' W 001°13'615.4
2018-Sep-15 09:30N 50°33' W 001°07'715.7
2018-Sep-15 09:04N 50°39' W 001°01'116.0
2018-Sep-15 09:01N 50°40' W 001°01'714.4
2018-Sep-15 08:30N 50°47' W 001°06'2 4.6
2018-Sep-15 08:03N 50°49' W 001°06'0 0.0
2018-Sep-15 08:00N 50°49' W 001°06'0 0.0
2018-Sep-15 07:30N 50°49' W 001°06'0 0.0
2018-Sep-15 07:03N 50°49' W 001°06'0 0.0
2018-Sep-15 07:00N 50°49' W 001°06'0 0.0
2018-Sep-15 06:30N 50°49' W 001°06'0 0.0
2018-Sep-15 06:03N 50°49' W 001°06'0 0.0
2018-Sep-15 06:00N 50°49' W 001°06'0 0.0
2018-Sep-15 05:30N 50°49' W 001°06'1 2.6
2018-Sep-15 05:03N 50°48' W 001°07'0 8.8
2018-Sep-15 05:00N 50°47' W 001°07'713.8
2018-Sep-15 04:31N 50°41' W 001°03'714.9
2018-Sep-15 04:03N 50°36' W 001°09'113.7
2018-Sep-15 04:00N 50°35' W 001°09'1614.0
2018-Sep-15 02:50N 50°22' W 001°25'412.4
2018-Sep-15 02:29N 50°18' W 001°29'512.7
2018-Sep-15 02:03N 50°14' W 001°34'113.3
2018-Sep-15 02:00N 50°14' W 001°35'713.3
2018-Sep-15 01:30N 50°08' W 001°41'613.7
2018-Sep-15 01:03N 50°03' W 001°47'114.1
2018-Sep-15 01:00N 50°03' W 001°48'713.9
2018-Sep-15 00:30N 49°58' W 001°55'612.8
2018-Sep-15 00:04N 49°52' W 001°59'112.1
2018-Sep-15 00:00N 49°52' W 001°59'813.8
2018-Sep-14 23:28N 49°45' W 002°03'820.4
2018-Sep-14 23:03N 49°37' W 002°08'319.8
2018-Sep-14 22:55N 49°35' W 002°09'919.5
2018-Sep-14 22:28N 49°27' W 002°15'819.4
2018-Sep-14 22:03N 49°19' W 002°19'  

Dump ship's entire track history